createdAt,value
2018-08-25T00:01:28.170Z,4.23
2018-08-25T00:03:56.659Z,3.80
2018-08-25T00:06:25.103Z,4.23
2018-08-25T00:08:53.559Z,4.23
2018-08-25T00:11:22.003Z,4.10
2018-08-25T00:13:50.476Z,4.00
2018-08-25T00:16:18.911Z,3.90
2018-08-25T00:18:47.374Z,3.73
2018-08-25T00:21:15.843Z,4.20
2018-08-25T00:23:44.299Z,3.90
2018-08-25T00:26:12.763Z,4.63
2018-08-25T00:28:41.220Z,4.00
2018-08-25T00:31:15.007Z,3.83
2018-08-25T00:33:43.467Z,3.73
2018-08-25T00:36:11.895Z,3.97
2018-08-25T00:38:40.322Z,3.90
2018-08-25T00:41:08.779Z,3.70
2018-08-25T00:43:37.250Z,3.10
2018-08-25T00:46:05.776Z,3.60
2018-08-25T00:48:34.336Z,3.77
2018-08-25T00:51:03.103Z,3.57
2018-08-25T00:53:31.563Z,3.67
2018-08-25T00:56:00.035Z,4.80
2018-08-25T00:58:28.471Z,7.83
2018-08-25T01:00:56.940Z,4.00
2018-08-25T01:03:25.396Z,3.97
2018-08-25T01:05:53.926Z,4.03
2018-08-25T01:08:22.368Z,3.80
2018-08-25T01:10:50.815Z,3.93
2018-08-25T01:13:19.295Z,3.70
2018-08-25T01:15:47.825Z,3.90
2018-08-25T01:18:16.219Z,3.73
2018-08-25T01:20:44.731Z,3.80
2018-08-25T01:23:13.187Z,3.67
2018-08-25T01:25:41.647Z,3.80
2018-08-25T01:28:10.095Z,4.03
2018-08-25T01:30:38.535Z,4.27
2018-08-25T01:33:07.042Z,3.53
2018-08-25T01:35:35.481Z,3.30
2018-08-25T01:38:03.968Z,3.03
2018-08-25T01:40:32.431Z,4.10
2018-08-25T01:43:00.943Z,3.83
2018-08-25T01:45:29.383Z,3.50
2018-08-25T01:47:57.831Z,3.87
2018-08-25T01:50:26.267Z,4.33
2018-08-25T01:52:54.723Z,3.50
2018-08-25T01:55:23.206Z,3.50
2018-08-25T01:57:51.669Z,3.53
2018-08-25T02:00:20.094Z,3.50
2018-08-25T02:02:48.584Z,3.40
2018-08-25T02:05:17.015Z,3.60
2018-08-25T02:07:45.479Z,3.50
2018-08-25T02:10:13.924Z,3.50
2018-08-25T02:12:42.382Z,3.50
2018-08-25T02:15:10.816Z,3.50
2018-08-25T02:17:39.276Z,3.20
2018-08-25T02:20:07.738Z,3.03
2018-08-25T02:22:36.172Z,3.33
2018-08-25T02:25:04.639Z,3.37
2018-08-25T02:27:33.067Z,3.57
2018-08-25T02:30:01.520Z,3.00
2018-08-25T02:32:29.959Z,3.10
2018-08-25T02:34:58.455Z,2.90
2018-08-25T02:37:26.895Z,3.23
2018-08-25T02:39:55.380Z,3.03
2018-08-25T02:42:23.831Z,3.03
2018-08-25T02:44:52.307Z,2.67
2018-08-25T02:47:20.744Z,3.13
2018-08-25T02:49:49.203Z,3.03
2018-08-25T02:52:17.695Z,3.00
2018-08-25T02:54:46.153Z,2.90
2018-08-25T02:57:14.578Z,3.07
2018-08-25T02:59:43.017Z,3.13
2018-08-25T03:02:11.458Z,3.20
2018-08-25T03:04:39.894Z,3.30
2018-08-25T03:07:08.354Z,2.97
2018-08-25T03:09:36.782Z,2.90
2018-08-25T03:12:05.235Z,2.80
2018-08-25T03:14:33.663Z,2.90
2018-08-25T03:17:02.121Z,3.00
2018-08-25T03:19:30.555Z,3.27
2018-08-25T03:21:58.986Z,3.30
2018-08-25T03:24:27.486Z,2.87
2018-08-25T03:26:55.992Z,3.20
2018-08-25T03:29:24.435Z,2.90
2018-08-25T03:31:52.885Z,2.90
2018-08-25T03:34:21.351Z,2.77
2018-08-25T03:36:49.780Z,2.60
2018-08-25T03:39:18.251Z,3.00
2018-08-25T03:41:46.683Z,2.83
2018-08-25T03:44:15.172Z,2.50
2018-08-25T03:46:43.603Z,3.13
2018-08-25T03:49:12.031Z,2.60
2018-08-25T03:51:40.491Z,3.00
2018-08-25T03:54:08.922Z,2.70
2018-08-25T03:56:37.384Z,2.60
2018-08-25T03:59:05.924Z,3.03
2018-08-25T04:01:34.400Z,2.50
2018-08-25T04:04:03.038Z,3.00
2018-08-25T04:06:31.522Z,2.50
2018-08-25T04:08:59.980Z,3.00
2018-08-25T04:11:28.411Z,2.93
2018-08-25T04:13:56.855Z,2.50
2018-08-25T04:16:25.374Z,3.10
2018-08-25T04:18:53.834Z,2.37
2018-08-25T04:21:22.263Z,2.80
2018-08-25T04:23:50.719Z,2.50
2018-08-25T04:26:19.146Z,2.63
2018-08-25T04:28:47.586Z,2.80
2018-08-25T04:31:16.016Z,2.80
2018-08-25T04:33:44.455Z,2.63
2018-08-25T04:36:12.873Z,2.93
2018-08-25T04:38:41.303Z,2.87
2018-08-25T04:41:09.801Z,2.90
2018-08-25T04:43:38.211Z,2.37
2018-08-25T04:46:06.984Z,2.87
2018-08-25T04:48:35.438Z,2.67
2018-08-25T04:51:03.883Z,2.40
2018-08-25T04:53:32.315Z,2.53
2018-08-25T04:56:00.774Z,2.57
2018-08-25T04:58:29.198Z,2.53
2018-08-25T05:00:57.643Z,2.33
2018-08-25T05:03:26.101Z,2.70
2018-08-25T05:05:54.548Z,2.60
2018-08-25T05:08:22.995Z,2.50
2018-08-25T05:10:51.436Z,2.40
2018-08-25T05:13:19.891Z,2.60
2018-08-25T05:15:48.335Z,2.40
2018-08-25T05:18:16.843Z,2.27
2018-08-25T05:20:45.262Z,3.10
2018-08-25T05:23:13.695Z,2.20
2018-08-25T05:25:42.193Z,2.63
2018-08-25T05:28:10.628Z,2.37
2018-08-25T05:30:39.138Z,2.83
2018-08-25T05:33:07.583Z,2.20
2018-08-25T05:35:36.039Z,2.80
2018-08-25T05:38:04.493Z,2.50
2018-08-25T05:40:33.007Z,2.80
2018-08-25T05:43:01.453Z,2.47
2018-08-25T05:45:29.891Z,2.90
2018-08-25T05:47:58.386Z,2.90
2018-08-25T05:50:26.819Z,2.87
2018-08-25T05:52:55.266Z,2.40
2018-08-25T05:55:23.694Z,2.30
2018-08-25T05:57:52.148Z,2.10
2018-08-25T06:00:20.599Z,2.50
2018-08-25T06:02:49.064Z,2.40
2018-08-25T06:05:17.503Z,2.30
2018-08-25T06:07:45.938Z,2.90
2018-08-25T06:10:14.382Z,2.80
2018-08-25T06:12:42.803Z,2.90
2018-08-25T06:15:11.268Z,2.67
2018-08-25T06:17:39.733Z,2.80
2018-08-25T06:20:08.214Z,7.10
2018-08-25T06:22:36.643Z,3.87
2018-08-25T06:25:05.991Z,3.63
2018-08-25T06:27:34.423Z,3.57
2018-08-25T06:30:02.888Z,3.00
2018-08-25T06:32:31.326Z,2.97
2018-08-25T06:34:59.768Z,3.10
2018-08-25T06:37:28.234Z,2.80
2018-08-25T06:39:56.671Z,2.50
2018-08-25T06:42:25.128Z,2.90
2018-08-25T06:44:53.569Z,3.53
2018-08-25T06:47:22.266Z,3.10
2018-08-25T06:49:50.703Z,2.97
2018-08-25T06:52:19.158Z,2.60
2018-08-25T06:54:47.590Z,3.03
2018-08-25T06:57:16.043Z,2.93
2018-08-25T06:59:44.481Z,3.73
2018-08-25T07:02:12.947Z,3.10
2018-08-25T07:04:41.379Z,3.80
2018-08-25T07:07:09.835Z,3.13
2018-08-25T07:09:38.255Z,3.33
2018-08-25T07:12:06.727Z,3.70
2018-08-25T07:14:35.183Z,3.70
2018-08-25T07:17:03.640Z,4.73
2018-08-25T07:19:32.156Z,4.20
2018-08-25T07:22:00.592Z,3.90
2018-08-25T07:24:29.055Z,4.07
2018-08-25T07:26:57.492Z,3.77
2018-08-25T07:29:25.939Z,4.37
2018-08-25T07:31:54.423Z,4.13
2018-08-25T07:34:22.815Z,4.20
2018-08-25T07:36:51.275Z,4.20
2018-08-25T07:39:19.716Z,4.93
2018-08-25T07:41:48.195Z,4.17
2018-08-25T07:44:16.627Z,4.50
2018-08-25T07:46:45.080Z,4.93
2018-08-25T07:49:13.508Z,4.17
2018-08-25T07:51:41.972Z,4.97
2018-08-25T07:54:10.454Z,4.40
2018-08-25T07:56:38.883Z,3.90
2018-08-25T07:59:07.389Z,3.80
2018-08-25T08:01:35.787Z,3.70
2018-08-25T08:04:04.254Z,3.67
2018-08-25T08:06:32.702Z,3.40
2018-08-25T08:09:01.555Z,4.30
2018-08-25T08:11:30.191Z,3.80
2018-08-25T08:13:58.803Z,3.40
2018-08-25T08:16:27.259Z,3.80
2018-08-25T08:18:55.711Z,3.40
2018-08-25T08:21:24.179Z,3.83
2018-08-25T08:23:52.643Z,4.37
2018-08-25T08:26:21.097Z,3.80
2018-08-25T08:28:49.559Z,4.10
2018-08-25T08:31:18.042Z,4.30
2018-08-25T08:33:46.487Z,4.00
2018-08-25T08:36:14.951Z,3.90
2018-08-25T08:38:43.454Z,4.40
2018-08-25T08:41:11.947Z,4.63
2018-08-25T08:43:40.405Z,4.50
2018-08-25T08:46:08.931Z,4.27
2018-08-25T08:48:37.372Z,4.47
2018-08-25T08:51:05.899Z,4.30
2018-08-25T08:53:34.338Z,4.40
2018-08-25T08:56:02.831Z,4.47
2018-08-25T08:58:31.267Z,4.77
2018-08-25T09:00:59.715Z,4.70
2018-08-25T09:03:28.204Z,4.77
2018-08-25T09:05:56.644Z,5.50
2018-08-25T09:08:25.116Z,4.80
2018-08-25T09:10:53.555Z,4.83
2018-08-25T09:13:22.008Z,5.47
2018-08-25T09:15:50.443Z,4.60
2018-08-25T09:18:18.916Z,5.13
2018-08-25T09:20:47.363Z,5.30
2018-08-25T09:23:15.794Z,5.63
2018-08-25T09:25:44.254Z,5.03
2018-08-25T09:28:12.683Z,4.70
2018-08-25T09:30:41.130Z,4.57
2018-08-25T09:33:09.555Z,4.90
2018-08-25T09:35:38.067Z,5.27
2018-08-25T09:38:07.051Z,5.00
2018-08-25T09:40:35.863Z,5.27
2018-08-25T09:43:04.535Z,5.17
2018-08-25T09:45:32.999Z,4.70
2018-08-25T09:48:01.439Z,4.50
2018-08-25T09:50:29.903Z,5.20
2018-08-25T09:52:58.387Z,5.27
2018-08-25T09:55:26.819Z,4.93
2018-08-25T09:57:55.283Z,4.67
2018-08-25T10:00:23.749Z,5.50
2018-08-25T10:02:52.223Z,4.97
2018-08-25T10:05:20.746Z,5.27
2018-08-25T10:07:49.147Z,4.50
2018-08-25T10:10:17.592Z,5.20
2018-08-25T10:12:46.072Z,5.53
2018-08-25T10:15:14.512Z,4.70
2018-08-25T10:17:42.995Z,5.20
2018-08-25T10:20:11.434Z,4.80
2018-08-25T10:22:39.863Z,4.70
2018-08-25T10:25:08.324Z,5.27
2018-08-25T10:27:36.759Z,4.87
2018-08-25T10:30:05.504Z,4.27
2018-08-25T10:32:33.959Z,4.30
2018-08-25T10:35:02.415Z,5.20
2018-08-25T10:37:30.927Z,4.93
2018-08-25T10:39:59.375Z,4.50
2018-08-25T10:42:27.820Z,5.10
2018-08-25T10:44:56.279Z,4.10
2018-08-25T10:47:24.716Z,4.10
2018-08-25T10:49:53.183Z,4.30
2018-08-25T10:52:21.702Z,3.77
2018-08-25T10:54:50.155Z,3.73
2018-08-25T10:57:18.604Z,3.60
2018-08-25T10:59:47.088Z,3.67
2018-08-25T11:02:22.992Z,2.87
2018-08-25T11:04:52.027Z,3.40
2018-08-25T11:07:21.319Z,3.20
2018-08-25T11:09:49.767Z,2.80
2018-08-25T11:12:18.387Z,3.30
2018-08-25T11:14:46.825Z,2.97
2018-08-25T11:17:15.733Z,3.33
2018-08-25T11:19:44.287Z,2.80
2018-08-25T11:22:12.794Z,2.80
2018-08-25T11:24:41.231Z,2.70
2018-08-25T11:27:09.778Z,2.57
2018-08-25T11:29:38.215Z,2.00
2018-08-25T11:32:06.696Z,2.40
2018-08-25T11:34:35.152Z,2.30
2018-08-25T11:37:03.616Z,1.90
2018-08-25T11:39:32.086Z,2.33
2018-08-25T11:42:00.554Z,2.50
2018-08-25T11:44:28.992Z,2.40
2018-08-25T11:46:57.432Z,2.03
2018-08-25T11:49:25.884Z,2.27
2018-08-25T11:51:54.311Z,2.00
2018-08-25T11:54:22.765Z,1.90
2018-08-25T11:56:51.215Z,2.00
2018-08-25T11:59:19.675Z,1.80
2018-08-25T12:01:48.160Z,1.87
2018-08-25T12:04:16.639Z,1.87
2018-08-25T12:06:45.058Z,2.13
2018-08-25T12:09:13.518Z,1.70
2018-08-25T12:11:41.994Z,1.97
2018-08-25T12:14:10.459Z,1.70
2018-08-25T12:16:38.969Z,1.90
2018-08-25T12:19:07.420Z,1.87
2018-08-25T12:21:35.883Z,1.67
2018-08-25T12:24:04.336Z,2.07
2018-08-25T12:26:32.867Z,1.80
2018-08-25T12:29:01.307Z,1.70
2018-08-25T12:31:29.747Z,1.57
2018-08-25T12:33:58.200Z,1.70
2018-08-25T12:36:26.704Z,1.93
2018-08-25T12:38:55.192Z,2.23
2018-08-25T12:41:23.600Z,1.93
2018-08-25T12:43:52.072Z,1.80
2018-08-25T12:46:20.510Z,1.70
2018-08-25T12:48:48.987Z,2.00
2018-08-25T12:51:17.415Z,1.70
2018-08-25T12:53:45.871Z,1.60
2018-08-25T12:56:14.308Z,1.50
2018-08-25T12:58:42.731Z,2.10
2018-08-25T13:01:11.187Z,1.50
2018-08-25T13:03:39.685Z,1.50
2018-08-25T13:06:08.203Z,1.60
2018-08-25T13:08:36.655Z,1.90
2018-08-25T13:11:05.195Z,1.83
2018-08-25T13:13:33.631Z,1.40
2018-08-25T13:16:02.091Z,1.50
2018-08-25T13:18:30.530Z,1.30
2018-08-25T13:20:59.011Z,1.20
2018-08-25T13:23:27.543Z,1.67
2018-08-25T13:25:55.903Z,1.50
2018-08-25T13:28:24.363Z,1.30
2018-08-25T13:30:52.868Z,1.17
2018-08-25T13:33:21.287Z,1.43
2018-08-25T13:35:49.723Z,1.60
2018-08-25T13:38:18.274Z,1.60
2018-08-25T13:40:46.659Z,1.57
2018-08-25T13:43:15.114Z,1.60
2018-08-25T13:45:43.544Z,1.70
2018-08-25T13:48:12.012Z,1.80
2018-08-25T13:50:40.471Z,1.33
2018-08-25T13:53:08.965Z,1.47
2018-08-25T13:55:37.459Z,1.40
2018-08-25T13:58:06.087Z,1.50
2018-08-25T14:00:34.503Z,1.37
2018-08-25T14:03:02.942Z,1.40
2018-08-25T14:05:31.412Z,1.43
2018-08-25T14:07:59.919Z,1.50
2018-08-25T14:10:28.337Z,1.40
2018-08-25T14:12:56.772Z,1.30
2018-08-25T14:15:25.208Z,1.37
2018-08-25T14:17:53.663Z,1.30
2018-08-25T14:20:22.104Z,1.30
2018-08-25T14:22:50.557Z,1.70
2018-08-25T14:25:18.991Z,1.20
2018-08-25T14:27:47.459Z,1.40
2018-08-25T14:30:15.888Z,1.20
2018-08-25T14:32:44.395Z,1.37
2018-08-25T14:35:12.832Z,1.37
2018-08-25T14:37:41.303Z,1.10
2018-08-25T14:40:09.795Z,1.40
2018-08-25T14:42:38.252Z,1.20
2018-08-25T14:45:06.723Z,1.20
2018-08-25T14:47:35.147Z,1.20
2018-08-25T14:50:03.659Z,1.20
2018-08-25T14:52:32.100Z,1.40
2018-08-25T14:55:00.559Z,1.37
2018-08-25T14:57:29.196Z,1.10
2018-08-25T14:59:57.663Z,1.03
2018-08-25T15:02:26.104Z,1.00
2018-08-25T15:04:54.555Z,1.50
2018-08-25T15:07:22.987Z,1.70
2018-08-25T15:09:51.418Z,1.00
2018-08-25T15:12:19.878Z,1.20
2018-08-25T15:14:48.371Z,1.33
2018-08-25T15:17:16.887Z,1.20
2018-08-25T15:19:45.361Z,1.20
2018-08-25T15:22:13.826Z,1.40
2018-08-25T15:24:42.264Z,1.30
2018-08-25T15:27:10.896Z,1.10
2018-08-25T15:29:39.403Z,1.37
2018-08-25T15:32:07.835Z,1.60
2018-08-25T15:34:36.296Z,1.70
2018-08-25T15:37:05.339Z,1.60
2018-08-25T15:39:33.800Z,1.30
2018-08-25T15:42:02.251Z,1.27
2018-08-25T15:44:30.703Z,1.53
2018-08-25T15:46:59.143Z,1.50
2018-08-25T15:49:27.863Z,1.20
2018-08-25T15:51:56.419Z,1.40
2018-08-25T15:54:24.747Z,1.40
2018-08-25T15:56:53.199Z,1.23
2018-08-25T15:59:21.643Z,1.60
2018-08-25T16:01:50.104Z,1.50
2018-08-25T16:04:18.546Z,1.60
2018-08-25T16:06:47.008Z,1.83
2018-08-25T16:09:15.435Z,1.40
2018-08-25T16:11:43.921Z,1.33
2018-08-25T16:14:12.351Z,1.40
2018-08-25T16:16:40.822Z,1.47
2018-08-25T16:19:09.321Z,1.80
2018-08-25T16:21:37.720Z,1.60
2018-08-25T16:24:06.203Z,1.70
2018-08-25T16:26:34.663Z,1.50
2018-08-25T16:29:03.139Z,1.30
2018-08-25T16:31:31.571Z,1.50
2018-08-25T16:34:00.015Z,1.30
2018-08-25T16:36:28.457Z,1.30
2018-08-25T16:38:56.951Z,1.43
2018-08-25T16:41:25.383Z,1.20
2018-08-25T16:43:53.842Z,1.40
2018-08-25T16:46:22.302Z,1.40
2018-08-25T16:48:52.004Z,1.10
2018-08-25T16:51:20.437Z,1.40
2018-08-25T16:53:48.863Z,1.37
2018-08-25T16:56:17.351Z,1.10
2018-08-25T16:58:45.784Z,1.10
2018-08-25T17:01:14.247Z,0.90
2018-08-25T17:03:42.674Z,1.20
2018-08-25T17:06:11.196Z,1.07
2018-08-25T17:08:39.637Z,1.20
2018-08-25T17:11:08.096Z,1.93
2018-08-25T17:13:36.542Z,1.50
2018-08-25T17:16:05.083Z,1.37
2018-08-25T17:18:33.539Z,1.30
2018-08-25T17:21:02.040Z,1.33
2018-08-25T17:23:30.467Z,0.90
2018-08-25T17:25:58.903Z,1.10
2018-08-25T17:28:27.360Z,1.17
2018-08-25T17:30:55.815Z,1.20
2018-08-25T17:33:24.244Z,1.00
2018-08-25T17:35:52.694Z,1.20
2018-08-25T17:38:21.134Z,1.20
2018-08-25T17:40:49.603Z,1.03
2018-08-25T17:43:18.039Z,1.07
2018-08-25T17:45:46.496Z,1.10
2018-08-25T17:48:14.962Z,1.20
2018-08-25T17:50:43.425Z,1.50
2018-08-25T17:53:11.874Z,1.57
2018-08-25T17:55:40.315Z,1.20
2018-08-25T17:58:08.779Z,1.10
2018-08-25T18:00:37.231Z,1.40
2018-08-25T18:03:05.715Z,1.70
2018-08-25T18:05:34.159Z,1.80
2018-08-25T18:08:02.629Z,1.50
2018-08-25T18:10:31.055Z,1.60
2018-08-25T18:12:59.515Z,1.30
2018-08-25T18:15:27.979Z,2.37
2018-08-25T18:17:56.399Z,2.80
2018-08-25T18:20:24.860Z,2.37
2018-08-25T18:22:53.295Z,2.10
2018-08-25T18:25:21.760Z,2.03
2018-08-25T18:27:50.190Z,1.50
2018-08-25T18:30:18.692Z,1.63
2018-08-25T18:32:47.099Z,1.37
2018-08-25T18:35:15.556Z,1.60
2018-08-25T18:37:43.980Z,1.60
2018-08-25T18:40:12.463Z,2.07
2018-08-25T18:42:40.887Z,2.17
2018-08-25T18:45:09.335Z,2.47
2018-08-25T18:47:37.799Z,1.97
2018-08-25T18:50:06.635Z,2.10
2018-08-25T18:52:35.106Z,2.87
2018-08-25T18:55:03.584Z,6.93
2018-08-25T18:57:32.033Z,5.33
2018-08-25T19:00:00.487Z,2.67
2018-08-25T19:02:28.951Z,2.40
2018-08-25T19:04:57.391Z,2.40
2018-08-25T19:07:25.823Z,2.20
2018-08-25T19:09:54.283Z,1.90
2018-08-25T19:12:22.715Z,2.10
2018-08-25T19:14:51.175Z,2.50
2018-08-25T19:17:19.611Z,2.33
2018-08-25T19:19:48.063Z,2.37
2018-08-25T19:22:16.495Z,2.73
2018-08-25T19:24:44.951Z,2.57
2018-08-25T19:27:13.386Z,2.80
2018-08-25T19:29:41.871Z,2.87
2018-08-25T19:32:10.303Z,2.30
2018-08-25T19:34:38.739Z,2.40
2018-08-25T19:37:07.235Z,2.10
2018-08-25T19:39:35.675Z,2.37
2018-08-25T19:42:04.187Z,2.60
2018-08-25T19:44:32.628Z,2.40
2018-08-25T19:47:01.101Z,2.80
2018-08-25T19:49:29.532Z,2.67
2018-08-25T19:51:57.995Z,2.60
2018-08-25T19:54:26.419Z,2.37
2018-08-25T19:56:54.926Z,2.67
2018-08-25T19:59:23.364Z,2.63
2018-08-25T20:01:51.855Z,2.73
2018-08-25T20:04:20.280Z,2.50
2018-08-25T20:06:48.752Z,2.30
2018-08-25T20:09:17.239Z,3.10
2018-08-25T20:11:45.676Z,2.70
2018-08-25T20:14:14.133Z,3.03
2018-08-25T20:16:42.579Z,2.40
2018-08-25T20:19:11.050Z,2.73
2018-08-25T20:21:39.723Z,3.00
2018-08-25T20:24:08.181Z,3.10
2018-08-25T20:26:36.634Z,2.77
2018-08-25T20:29:05.284Z,2.37
2018-08-25T20:31:33.723Z,2.20
2018-08-25T20:34:02.207Z,2.00
2018-08-25T20:36:30.695Z,2.07
2018-08-25T20:38:59.134Z,2.10
2018-08-25T20:41:27.607Z,2.10
2018-08-25T20:43:56.043Z,2.40
2018-08-25T20:46:24.499Z,2.67
2018-08-25T20:48:52.935Z,2.53
2018-08-25T20:51:21.435Z,2.73
2018-08-25T20:53:49.891Z,3.00
2018-08-25T20:56:18.324Z,2.83
2018-08-25T20:58:46.784Z,3.10
2018-08-25T21:01:15.217Z,2.80
2018-08-25T21:03:43.695Z,3.10
2018-08-25T21:06:12.147Z,2.93
2018-08-25T21:08:40.611Z,2.60
2018-08-25T21:11:09.039Z,3.07
2018-08-25T21:13:37.483Z,2.93
2018-08-25T21:16:05.939Z,2.80
2018-08-25T21:18:34.370Z,2.73
2018-08-25T21:21:02.827Z,2.83
2018-08-25T21:23:31.272Z,2.73
2018-08-25T21:25:59.739Z,2.97
2018-08-25T21:28:28.187Z,2.73
2018-08-25T21:30:56.708Z,2.73
2018-08-25T21:33:25.131Z,2.73
2018-08-25T21:35:53.783Z,3.00
2018-08-25T21:38:22.223Z,3.00
2018-08-25T21:40:50.724Z,2.40
2018-08-25T21:43:19.198Z,2.60
2018-08-25T21:45:47.637Z,2.57
2018-08-25T21:48:16.084Z,2.40
2018-08-25T21:50:44.531Z,3.00
2018-08-25T21:53:12.983Z,2.50
2018-08-25T21:55:41.423Z,2.30
2018-08-25T21:58:09.920Z,2.40
2018-08-25T22:00:42.562Z,2.40
2018-08-25T22:03:11.031Z,2.70
2018-08-25T22:05:39.522Z,2.47
2018-08-25T22:08:07.946Z,2.30
2018-08-25T22:10:36.411Z,2.40
2018-08-25T22:13:04.844Z,2.40
2018-08-25T22:15:33.306Z,2.50
2018-08-25T22:18:01.735Z,2.57
2018-08-25T22:20:30.249Z,2.40
2018-08-25T22:22:58.680Z,2.43
2018-08-25T22:25:27.143Z,2.20
2018-08-25T22:27:55.575Z,2.00
2018-08-25T22:30:24.023Z,2.40
2018-08-25T22:32:52.499Z,2.23
2018-08-25T22:35:20.945Z,2.60
2018-08-25T22:37:49.395Z,2.87
2018-08-25T22:40:17.831Z,3.00
2018-08-25T22:42:46.293Z,2.37
2018-08-25T22:45:14.743Z,2.40
2018-08-25T22:47:43.203Z,2.43
2018-08-25T22:50:11.663Z,2.50
2018-08-25T22:52:45.575Z,2.67
2018-08-25T22:55:14.041Z,2.20
2018-08-25T22:57:42.563Z,2.47
2018-08-25T23:00:11.024Z,2.50
2018-08-25T23:02:41.075Z,2.23
2018-08-25T23:05:09.843Z,2.10
2018-08-25T23:07:38.639Z,2.40
2018-08-25T23:10:07.232Z,2.57
2018-08-25T23:12:35.683Z,2.67
2018-08-25T23:15:04.351Z,2.10
2018-08-25T23:17:32.774Z,2.37
2018-08-25T23:20:01.199Z,2.33
2018-08-25T23:22:29.664Z,2.60
2018-08-25T23:24:58.166Z,2.40
2018-08-25T23:27:26.659Z,2.20
2018-08-25T23:29:55.118Z,2.90
2018-08-25T23:32:23.578Z,2.20
2018-08-25T23:34:52.007Z,2.10
2018-08-25T23:37:20.479Z,2.20
2018-08-25T23:39:48.918Z,2.30
2018-08-25T23:42:17.343Z,2.10
2018-08-25T23:44:45.805Z,2.10
2018-08-25T23:47:14.255Z,1.87
2018-08-25T23:49:42.715Z,19.83
2018-08-25T23:52:11.143Z,4.00
2018-08-25T23:54:39.598Z,2.77
2018-08-25T23:57:08.028Z,2.30
2018-08-25T23:59:36.479Z,2.30
